Time;durP1;ratioP1;P1;durP2;ratioP2;P2;SDS_P1;SDS_P2;PMS_P1;PMS_P2;Temp;Humidity;BMP_temperature;BMP_pressure;BME280_temperature;BME280_humidity;BME280_pressure;Samples;Min_cycle;Max_cycle;Signal;HPM_P1;HPM_P2
2020/12/16 00:02:18;;;;;;;9.55;2.80;;;15.80;73.90;;;;;;5114675;28;20036;-71
2020/12/16 00:04:48;;;;;;;12.43;3.22;;;15.40;74.70;;;;;;5113902;28;20039;-71
2020/12/16 00:07:19;;;;;;;8.77;2.58;;;15.60;77.20;;;;;;5114635;28;20384;-71
2020/12/16 00:09:46;;;;;;;5.80;2.35;;;15.60;77.70;;;;;;5114078;28;20035;-71
2020/12/16 00:12:13;;;;;;;7.07;2.70;;;15.50;78.80;;;;;;5112156;28;20373;-71
2020/12/16 00:14:40;;;;;;;6.88;2.30;;;15.10;79.60;;;;;;5114832;28;20024;-75
2020/12/16 00:17:06;;;;;;;13.45;2.65;;;14.90;81.70;;;;;;5104390;28;20031;-72
2020/12/16 00:19:33;;;;;;;9.93;3.05;;;14.60;84.00;;;;;;5114490;28;20031;-73
2020/12/16 00:22:01;;;;;;;10.02;3.03;;;14.40;86.50;;;;;;5114090;28;20479;-75
2020/12/16 00:24:28;;;;;;;12.38;2.90;;;14.30;88.00;;;;;;5114468;28;20027;-73
2020/12/16 00:26:55;;;;;;;11.95;3.55;;;14.10;89.30;;;;;;5113833;28;20023;-72
2020/12/16 00:29:22;;;;;;;10.55;3.45;;;14.00;90.40;;;;;;5108691;28;20024;-71
2020/12/16 00:31:49;;;;;;;11.05;3.28;;;13.70;91.00;;;;;;5109051;28;20031;-71
2020/12/16 00:34:17;;;;;;;8.75;2.17;;;13.50;92.10;;;;;;5100488;28;20055;-72
2020/12/16 00:36:44;;;;;;;7.60;2.40;;;13.30;92.40;;;;;;5093642;28;20345;-71
2020/12/16 00:39:11;;;;;;;6.97;2.70;;;13.20;92.90;;;;;;5105329;28;20725;-72
2020/12/16 00:41:38;;;;;;;12.68;3.00;;;12.90;94.20;;;;;;5094113;28;20400;-73
2020/12/16 00:44:05;;;;;;;8.60;2.53;;;12.70;95.50;;;;;;5109402;28;20058;-73
2020/12/16 00:46:35;;;;;;;5.00;2.13;;;12.60;96.00;;;;;;5113844;28;20028;-71
2020/12/16 00:49:02;;;;;;;6.18;2.13;;;12.30;96.40;;;;;;5113910;28;20028;-73
2020/12/16 00:51:29;;;;;;;13.60;3.75;;;12.20;96.60;;;;;;5111865;28;20036;-74
2020/12/16 00:53:56;;;;;;;7.45;2.28;;;12.10;97.90;;;;;;5113672;28;20696;-75
2020/12/16 00:56:23;;;;;;;7.97;2.65;;;11.90;97.50;;;;;;5113760;28;20031;-72
2020/12/16 00:58:50;;;;;;;8.45;2.13;;;11.80;98.10;;;;;;5113539;28;20050;-73
2020/12/16 01:01:17;;;;;;;9.80;2.75;;;11.70;98.50;;;;;;5113176;28;20372;-72
2020/12/16 01:03:44;;;;;;;7.30;2.85;;;11.50;99.50;;;;;;5113460;28;20039;-73
2020/12/16 01:06:12;;;;;;;11.90;2.63;;;11.40;99.90;;;;;;5113588;28;20943;-72
2020/12/16 01:08:40;;;;;;;5.65;1.90;;;11.30;99.80;;;;;;5113410;28;20039;-74
2020/12/16 01:11:08;;;;;;;11.98;2.42;;;11.30;99.70;;;;;;5112430;28;20037;-73
2020/12/16 01:13:35;;;;;;;8.13;1.90;;;11.20;99.80;;;;;;5113032;28;20019;-73
2020/12/16 01:16:02;;;;;;;6.50;2.03;;;11.10;97.80;;;;;;5112988;28;20022;-72
2020/12/16 01:18:29;;;;;;;7.78;2.30;;;11.00;97.70;;;;;;5112788;28;20044;-73
2020/12/16 01:20:56;;;;;;;10.50;3.90;;;10.90;97.40;;;;;;5112480;28;20371;-74
2020/12/16 01:23:23;;;;;;;6.40;2.00;;;10.70;96.80;;;;;;5113151;28;20047;-71
2020/12/16 01:25:50;;;;;;;3.10;1.00;;;10.50;96.40;;;;;;5111295;28;20035;-72
2020/12/16 01:28:17;;;;;;;2.78;0.90;;;10.40;95.50;;;;;;5112750;28;20051;-73
2020/12/16 01:30:43;;;;;;;2.80;0.75;;;10.40;96.10;;;;;;5113105;28;20031;-72
2020/12/16 01:33:10;;;;;;;4.25;0.85;;;10.40;95.60;;;;;;5112242;28;20031;-73
2020/12/16 01:35:37;;;;;;;2.65;0.75;;;10.30;95.60;;;;;;5113091;28;20094;-74
2020/12/16 01:38:04;;;;;;;6.20;1.00;;;10.30;95.80;;;;;;5112625;28;20470;-73
2020/12/16 01:40:31;;;;;;;1.75;0.70;;;10.30;94.90;;;;;;5112411;28;20020;-72
2020/12/16 01:42:58;;;;;;;2.85;0.82;;;10.20;96.00;;;;;;5110803;28;20396;-72
2020/12/16 01:45:25;;;;;;;5.38;1.77;;;10.20;95.90;;;;;;5112483;28;20039;-72
2020/12/16 01:47:52;;;;;;;7.32;0.95;;;10.20;95.80;;;;;;5112729;28;20432;-72
2020/12/16 01:50:20;;;;;;;5.72;0.88;;;10.20;95.70;;;;;;5112510;28;20040;-72
2020/12/16 01:52:48;;;;;;;3.75;0.82;;;10.20;96.40;;;;;;5111762;28;20034;-71
2020/12/16 01:55:15;;;;;;;3.63;0.70;;;10.10;96.50;;;;;;5112239;28;20391;-72
2020/12/16 01:57:46;;;;;;;2.80;1.10;;;10.10;96.50;;;;;;5112410;28;20028;-73
2020/12/16 02:00:14;;;;;;;4.88;1.67;;;10.00;96.80;;;;;;5112310;28;20055;-73
2020/12/16 02:02:49;;;;;;;2.20;0.88;;;10.00;96.70;;;;;;5111960;28;20043;-73
2020/12/16 02:05:18;;;;;;;1.58;0.70;;;10.10;95.80;;;;;;5112260;28;20023;-72
2020/12/16 02:07:46;;;;;;;3.85;1.17;;;10.10;95.80;;;;;;5112253;28;20035;-73
2020/12/16 02:10:14;;;;;;;3.20;0.98;;;10.10;95.50;;;;;;5112521;28;20027;-73
2020/12/16 02:12:41;;;;;;;4.03;1.00;;;10.10;95.40;;;;;;5111278;28;20483;-74
2020/12/16 02:15:09;;;;;;;6.35;1.27;;;10.10;95.50;;;;;;5111537;28;20035;-76
2020/12/16 02:17:36;;;;;;;6.22;2.33;;;10.10;94.90;;;;;;5111371;28;20053;-73
2020/12/16 02:20:08;;;;;;;3.40;0.90;;;10.10;94.90;;;;;;5102456;28;20362;-73
2020/12/16 02:22:36;;;;;;;;;;;10.20;94.50;;;;;;5093187;28;20040;-74
2020/12/16 02:25:08;;;;;;;5.78;1.55;;;10.20;94.10;;;;;;5092915;28;19908;-72
2020/12/16 02:27:40;;;;;;;3.67;1.30;;;10.20;93.90;;;;;;5092938;28;20376;-74
2020/12/16 02:30:14;;;;;;;4.05;1.00;;;10.10;94.30;;;;;;5092701;28;20032;-74
2020/12/16 02:32:41;;;;;;;2.40;0.80;;;10.00;95.30;;;;;;5092113;28;20020;-72
2020/12/16 02:35:09;;;;;;;3.35;1.02;;;10.00;94.20;;;;;;5091738;28;20352;-72
2020/12/16 02:37:36;;;;;;;3.75;1.45;;;10.10;94.00;;;;;;5092806;28;20411;-72
2020/12/16 02:40:05;;;;;;;4.38;0.98;;;10.10;94.00;;;;;;5096296;28;20396;-73
2020/12/16 02:42:33;;;;;;;3.67;1.00;;;10.10;94.10;;;;;;5099654;28;20518;-73
2020/12/16 02:45:00;;;;;;;3.70;0.90;;;10.20;94.50;;;;;;5093694;28;20032;-73
2020/12/16 02:47:27;;;;;;;6.13;1.35;;;10.10;95.00;;;;;;5110069;28;20555;-73
2020/12/16 02:49:54;;;;;;;3.30;1.10;;;10.00;94.90;;;;;;5109105;28;20476;-73
2020/12/16 02:52:21;;;;;;;3.53;1.20;;;9.90;95.10;;;;;;5115981;28;20024;-74
2020/12/16 02:54:48;;;;;;;5.30;1.88;;;10.00;95.10;;;;;;5102209;28;20036;-73
2020/12/16 02:57:14;;;;;;;3.08;1.00;;;9.90;95.70;;;;;;5095192;28;20036;-73
2020/12/16 02:59:57;;;;;;;2.35;1.00;;;9.80;95.90;;;;;;5108770;28;20039;-73
2020/12/16 03:02:24;;;;;;;5.90;2.15;;;9.80;96.70;;;;;;5113918;28;20032;-73
2020/12/16 03:04:51;;;;;;;4.40;1.35;;;9.90;97.30;;;;;;5098694;28;20396;-73
2020/12/16 03:07:18;;;;;;;3.65;1.00;;;9.80;97.60;;;;;;5110876;28;20027;-73
2020/12/16 03:09:45;;;;;;;2.88;1.30;;;9.80;97.80;;;;;;5105744;28;20032;-72
2020/12/16 03:12:15;;;;;;;4.75;1.20;;;9.70;98.60;;;;;;5096527;28;20024;-73
2020/12/16 03:14:43;;;;;;;3.28;1.05;;;9.70;98.60;;;;;;5094548;28;20036;-73
2020/12/16 03:17:10;;;;;;;3.63;1.73;;;9.70;98.70;;;;;;5096665;28;20040;-73
2020/12/16 03:19:37;;;;;;;3.90;1.17;;;9.60;98.90;;;;;;5095824;28;20056;-73
2020/12/16 03:22:04;;;;;;;5.68;1.30;;;9.50;99.20;;;;;;5109323;28;20020;-72
2020/12/16 03:24:34;;;;;;;6.03;1.60;;;9.40;99.50;;;;;;5114636;28;20503;-72
2020/12/16 03:27:01;;;;;;;6.22;1.75;;;9.50;99.30;;;;;;5115532;28;20456;-72
2020/12/16 03:29:28;;;;;;;6.32;1.90;;;9.40;99.90;;;;;;5101438;28;20491;-73
2020/12/16 03:31:55;;;;;;;5.88;2.22;;;9.30;99.90;;;;;;5096234;28;20036;-72
2020/12/16 03:34:22;;;;;;;6.93;2.80;;;9.30;99.90;;;;;;5095656;28;20040;-73
2020/12/16 03:36:49;;;;;;;3.17;1.60;;;9.30;99.90;;;;;;5095639;28;20028;-73
2020/12/16 03:39:16;;;;;;;5.90;2.05;;;9.20;99.90;;;;;;5106819;28;20031;-73
2020/12/16 03:41:43;;;;;;;6.05;2.20;;;9.20;99.90;;;;;;5107665;28;20027;-73
2020/12/16 03:44:09;;;;;;;6.10;1.70;;;9.20;99.90;;;;;;5101286;28;20046;-72
2020/12/16 03:46:37;;;;;;;5.68;2.00;;;9.00;99.90;;;;;;5105182;28;20775;-72
2020/12/16 03:49:03;;;;;;;5.90;1.88;;;9.20;99.90;;;;;;5114872;28;20035;-72
2020/12/16 03:51:30;;;;;;;6.95;2.13;;;9.20;99.90;;;;;;5113246;28;20019;-73
2020/12/16 03:53:57;;;;;;;7.90;2.33;;;9.20;99.90;;;;;;5109287;28;20356;-73
2020/12/16 03:56:24;;;;;;;4.65;2.13;;;9.20;99.90;;;;;;5112089;28;20426;-74
2020/12/16 03:58:51;;;;;;;4.07;1.98;;;9.20;99.90;;;;;;5107699;28;20050;-72
2020/12/16 04:01:21;;;;;;;10.07;2.35;;;9.20;99.90;;;;;;5111590;28;20028;-73
2020/12/16 04:03:48;;;;;;;8.43;2.30;;;9.20;99.90;;;;;;5113673;28;20043;-72
2020/12/16 04:06:15;;;;;;;5.82;2.80;;;9.20;99.90;;;;;;5114073;28;20031;-71
2020/12/16 04:08:45;;;;;;;7.07;2.88;;;9.20;99.90;;;;;;5114677;28;20032;-73
2020/12/16 04:11:15;;;;;;;6.03;2.42;;;9.10;99.90;;;;;;5113720;28;20027;-72
2020/12/16 04:13:43;;;;;;;5.88;2.58;;;9.10;99.90;;;;;;5114357;28;20035;-71
2020/12/16 04:16:14;;;;;;;9.32;2.30;;;9.10;99.90;;;;;;5114559;28;20376;-72
2020/12/16 04:18:41;;;;;;;5.78;2.28;;;9.10;99.90;;;;;;5107652;28;20464;-73
2020/12/16 04:21:09;;;;;;;6.25;2.30;;;9.10;99.90;;;;;;5112606;28;20043;-72
2020/12/16 04:23:37;;;;;;;4.82;2.17;;;9.10;99.90;;;;;;5099417;28;20040;-73
2020/12/16 04:26:04;;;;;;;5.13;2.10;;;9.10;99.90;;;;;;5103301;28;20029;-72
2020/12/16 04:28:33;;;;;;;10.85;4.22;;;9.00;99.90;;;;;;5106175;28;20032;-73
2020/12/16 04:31:04;;;;;;;9.23;2.40;;;8.90;99.90;;;;;;5109891;28;20064;-72
2020/12/16 04:33:31;;;;;;;10.98;2.83;;;8.90;99.90;;;;;;5092639;28;20055;-73
2020/12/16 04:35:59;;;;;;;5.75;2.25;;;8.80;99.90;;;;;;5093422;28;20036;-72
2020/12/16 04:38:25;;;;;;;6.18;2.22;;;8.70;99.90;;;;;;5093297;28;20472;-73
2020/12/16 04:40:55;;;;;;;7.63;2.00;;;8.70;99.90;;;;;;5093959;28;20676;-73
2020/12/16 04:43:24;;;;;;;7.70;2.50;;;8.60;99.90;;;;;;5093710;28;20043;-74
2020/12/16 04:45:52;;;;;;;4.30;2.15;;;8.70;99.90;;;;;;5100839;28;20028;-74
2020/12/16 04:48:19;;;;;;;3.50;2.05;;;8.70;99.90;;;;;;5111671;28;20391;-74
2020/12/16 04:50:47;;;;;;;7.53;2.30;;;8.70;99.90;;;;;;5114040;28;20024;-73
2020/12/16 04:53:18;;;;;;;4.40;1.92;;;8.70;99.90;;;;;;5113872;28;20032;-73
2020/12/16 04:55:47;;;;;;;7.97;3.00;;;8.80;99.90;;;;;;5108672;28;20479;-74
2020/12/16 04:58:15;;;;;;;8.18;1.88;;;8.80;99.90;;;;;;5113156;28;20052;-73
2020/12/16 05:00:42;;;;;;;4.63;1.20;;;8.80;99.90;;;;;;5113745;28;20035;-73
2020/12/16 05:03:11;;;;;;;5.57;1.67;;;8.80;99.90;;;;;;5112704;28;20034;-73
2020/12/16 05:05:38;;;;;;;9.27;1.50;;;8.80;99.90;;;;;;5110605;28;20031;-73
2020/12/16 05:08:15;;;;;;;5.50;1.83;;;8.80;99.90;;;;;;5113610;28;20035;-73
2020/12/16 05:10:44;;;;;;;6.68;2.30;;;8.80;99.90;;;;;;5111514;28;20027;-73
2020/12/16 05:13:13;;;;;;;5.97;1.40;;;8.80;99.90;;;;;;5090691;28;20481;-73
2020/12/16 05:15:43;;;;;;;5.35;1.83;;;8.80;99.90;;;;;;5093048;28;20086;-73
2020/12/16 05:18:15;;;;;;;6.65;1.55;;;8.80;99.90;;;;;;5092935;28;20016;-74
2020/12/16 05:21:01;;;;;;;5.75;2.00;;;8.80;99.90;;;;;;5100989;28;20023;-72
2020/12/16 05:23:30;;;;;;;6.18;1.70;;;8.80;99.90;;;;;;5111223;28;20514;-74
2020/12/16 05:26:10;;;;;;;7.93;1.92;;;8.80;99.90;;;;;;5106649;28;20112;-72
2020/12/16 05:28:45;;;;;;;7.78;1.80;;;8.90;99.90;;;;;;5092659;28;20036;-74
2020/12/16 05:31:13;;;;;;;4.40;1.65;;;8.90;99.90;;;;;;5104050;28;20019;-74
2020/12/16 05:33:49;;;;;;;10.07;3.30;;;8.90;99.90;;;;;;5113141;28;20036;-74
2020/12/16 05:36:30;;;;;;;8.55;1.83;;;8.90;99.90;;;;;;5105004;28;20020;-70
2020/12/16 05:38:58;;;;;;;7.70;1.50;;;8.80;99.90;;;;;;5090958;28;20036;-73
2020/12/16 05:41:30;;;;;;;3.80;1.52;;;8.80;99.90;;;;;;5104522;28;20024;-72
2020/12/16 05:44:17;;;;;;;4.05;1.38;;;9.00;99.90;;;;;;5111260;28;20043;-73
2020/12/16 05:46:44;;;;;;;4.80;1.52;;;9.00;99.90;;;;;;5109732;28;20036;-73
2020/12/16 05:49:24;;;;;;;7.68;2.17;;;9.10;99.90;;;;;;5109565;28;20460;-73
2020/12/16 05:51:56;;;;;;;7.78;1.50;;;9.00;99.90;;;;;;5092100;28;20032;-74
2020/12/16 05:54:23;;;;;;;4.03;1.42;;;9.10;99.90;;;;;;5093143;28;20043;-73
2020/12/16 05:57:29;;;;;;;7.63;1.95;;;9.10;99.90;;;;;;5111615;28;20373;-73
2020/12/16 06:00:14;;;;;;;8.98;2.00;;;9.10;99.90;;;;;;5112493;28;20035;-71
2020/12/16 06:02:43;;;;;;;4.30;1.30;;;9.00;99.90;;;;;;5111586;28;20043;-72
2020/12/16 06:05:15;;;;;;;7.25;1.67;;;9.00;99.90;;;;;;5111975;28;20039;-73
2020/12/16 06:07:47;;;;;;;6.50;1.95;;;8.90;99.90;;;;;;5110877;28;20020;-73
2020/12/16 06:10:15;;;;;;;7.43;1.70;;;8.80;99.90;;;;;;5112216;28;20036;-73
2020/12/16 06:12:44;;;;;;;8.10;2.83;;;8.80;99.90;;;;;;5112377;28;20020;-73
2020/12/16 06:15:16;;;;;;;8.27;1.60;;;8.90;99.90;;;;;;5110330;28;20036;-73
2020/12/16 06:17:48;;;;;;;;;;;9.00;99.90;;;;;;5111868;28;20043;-73
2020/12/16 06:20:18;;;;;;;6.80;1.27;;;9.00;99.90;;;;;;5112151;28;19903;-73
2020/12/16 06:22:47;;;;;;;8.75;1.90;;;9.00;99.90;;;;;;5109829;28;20086;-73
2020/12/16 06:25:18;;;;;;;11.32;2.67;;;8.90;99.90;;;;;;5111941;28;20380;-73
2020/12/16 06:27:46;;;;;;;10.32;1.50;;;9.20;99.90;;;;;;5112063;28;20020;-73
2020/12/16 06:30:28;;;;;;;7.50;1.38;;;9.40;99.90;;;;;;5111510;28;20031;-72
2020/12/16 06:33:12;;;;;;;6.57;1.60;;;9.50;99.90;;;;;;5111674;28;20050;-73
2020/12/16 06:35:44;;;;;;;7.20;1.45;;;9.50;99.90;;;;;;5111556;28;20055;-73
2020/12/16 06:38:19;;;;;;;8.95;1.45;;;9.50;99.90;;;;;;5111927;28;20020;-73
2020/12/16 06:40:48;;;;;;;8.40;1.75;;;9.50;99.90;;;;;;5111732;28;20035;-73
2020/12/16 06:43:34;;;;;;;7.50;1.75;;;9.40;99.90;;;;;;5111914;28;20383;-73
2020/12/16 06:46:02;;;;;;;4.78;1.10;;;9.40;99.90;;;;;;5112056;28;20019;-73
2020/12/16 06:48:39;;;;;;;8.27;1.85;;;9.30;99.90;;;;;;5111184;28;20035;-73
2020/12/16 06:51:19;;;;;;;8.32;2.28;;;9.20;99.90;;;;;;5111619;28;20042;-72
2020/12/16 06:53:47;;;;;;;8.00;1.55;;;9.20;99.90;;;;;;5103902;28;20380;-73
2020/12/16 06:56:22;;;;;;;9.50;1.73;;;9.20;99.90;;;;;;5090694;28;20040;-73
2020/12/16 06:58:49;;;;;;;9.30;1.58;;;9.10;99.90;;;;;;5091259;28;20158;-75
2020/12/16 07:01:19;;;;;;;6.13;1.10;;;9.10;99.90;;;;;;5104962;28;20384;-76
2020/12/16 07:03:46;;;;;;;5.10;1.20;;;9.10;99.90;;;;;;5111834;28;20039;-75
2020/12/16 07:06:28;;;;;;;5.47;1.67;;;9.10;99.90;;;;;;5111624;28;20460;-75
2020/12/16 07:09:15;;;;;;;6.13;2.17;;;9.10;99.90;;;;;;5111537;28;20478;-76
2020/12/16 07:11:44;;;;;;;11.23;2.40;;;9.10;99.90;;;;;;5110810;28;20046;-79
2020/12/16 07:14:13;;;;;;;7.60;1.80;;;9.10;99.90;;;;;;5111906;28;20024;-77
2020/12/16 07:16:42;;;;;;;11.02;1.92;;;9.30;99.90;;;;;;5111858;28;20024;-78
2020/12/16 07:19:10;;;;;;;4.55;1.60;;;9.20;99.90;;;;;;5111724;28;20023;-75
2020/12/16 07:21:40;;;;;;;7.00;1.88;;;9.20;99.90;;;;;;5110471;28;20040;-77
2020/12/16 07:24:15;;;;;;;13.45;1.85;;;9.20;99.90;;;;;;5110861;28;20051;-76
2020/12/16 07:26:48;;;;;;;5.47;1.50;;;9.30;99.90;;;;;;5110847;28;20495;-76
2020/12/16 07:29:29;;;;;;;6.43;1.40;;;9.10;99.90;;;;;;5109425;28;20475;-76
2020/12/16 07:32:11;;;;;;;9.25;1.90;;;9.10;99.90;;;;;;5111504;28;20020;-76
2020/12/16 07:35:05;;;;;;;5.88;1.60;;;9.10;99.90;;;;;;5111248;28;20030;-77
2020/12/16 07:37:32;;;;;;;9.80;1.52;;;9.10;99.90;;;;;;5092429;28;20032;-79
2020/12/16 07:40:10;;;;;;;6.60;1.40;;;9.00;99.90;;;;;;5098455;28;20043;-76
2020/12/16 07:42:38;;;;;;;6.07;1.30;;;9.00;99.90;;;;;;5109723;28;20047;-76
2020/12/16 07:45:07;;;;;;;10.50;2.00;;;8.90;99.90;;;;;;5094629;28;20047;-76
2020/12/16 07:47:35;;;;;;;7.50;1.27;;;9.00;99.90;;;;;;5096435;28;20082;-76
2020/12/16 07:50:03;;;;;;;4.72;1.33;;;9.00;99.90;;;;;;5108454;28;20050;-76
2020/12/16 07:52:31;;;;;;;10.25;2.08;;;9.00;99.90;;;;;;5095883;28;20452;-76
2020/12/16 07:54:59;;;;;;;8.85;1.90;;;8.90;99.90;;;;;;5114817;28;20035;-75
2020/12/16 07:57:34;;;;;;;8.77;1.67;;;9.00;99.90;;;;;;5114794;28;20549;-75
2020/12/16 08:00:03;;;;;;;7.82;1.70;;;9.20;99.90;;;;;;5095664;28;20047;-76
2020/12/16 08:02:30;;;;;;;7.82;2.60;;;9.20;99.90;;;;;;5094609;28;20020;-76
2020/12/16 08:05:03;;;;;;;8.60;1.80;;;9.10;99.90;;;;;;5114555;28;20072;-76
2020/12/16 08:07:31;;;;;;;4.47;1.10;;;9.10;99.90;;;;;;5114968;28;20368;-76
2020/12/16 08:09:58;;;;;;;9.27;1.83;;;9.10;99.90;;;;;;5095271;28;20036;-77
2020/12/16 08:12:27;;;;;;;6.43;1.40;;;9.00;99.90;;;;;;5095554;28;20464;-76
2020/12/16 08:15:08;;;;;;;6.28;1.58;;;9.00;99.90;;;;;;5094441;28;20039;-76
2020/12/16 08:17:41;;;;;;;8.27;1.55;;;9.00;99.90;;;;;;5093928;28;20043;-77
2020/12/16 08:20:20;;;;;;;4.32;1.30;;;9.00;99.90;;;;;;5094346;28;20031;-77
2020/12/16 08:22:49;;;;;;;5.00;1.15;;;9.10;99.90;;;;;;5096864;28;20031;-77
2020/12/16 08:25:18;;;;;;;10.95;1.63;;;9.00;99.90;;;;;;5114334;28;20062;-77
2020/12/16 08:27:46;;;;;;;6.72;1.35;;;9.10;99.90;;;;;;5110527;28;20376;-77
2020/12/16 08:30:16;;;;;;;7.00;1.52;;;9.00;99.90;;;;;;5094321;28;20039;-77
2020/12/16 08:33:04;;;;;;;8.38;1.70;;;8.90;99.90;;;;;;5094850;28;20032;-77
2020/12/16 08:35:35;;;;;;;4.72;1.48;;;9.00;99.90;;;;;;5094173;28;20376;-77
2020/12/16 08:38:09;;;;;;;6.78;1.77;;;8.90;99.90;;;;;;5098073;28;20043;-77
2020/12/16 08:40:38;;;;;;;9.07;2.13;;;8.80;99.90;;;;;;5113106;28;20476;-77
2020/12/16 08:43:24;;;;;;;6.55;1.70;;;8.90;99.90;;;;;;5111042;27;20044;-77
2020/12/16 08:46:05;;;;;;;23.33;4.15;;;8.90;99.90;;;;;;5113660;28;20395;-77
2020/12/16 08:48:57;;;;;;;10.65;1.70;;;9.10;99.90;;;;;;5108246;28;20024;-76
2020/12/16 08:51:41;;;;;;;10.00;1.77;;;9.10;99.90;;;;;;5093693;28;20024;-77
2020/12/16 08:54:23;;;;;;;7.97;1.45;;;8.90;99.90;;;;;;5094594;28;20024;-76
2020/12/16 08:56:53;;;;;;;4.40;1.33;;;8.80;99.90;;;;;;5093185;28;20036;-76
2020/12/16 08:59:27;;;;;;;7.07;2.00;;;9.00;99.90;;;;;;5103654;28;20043;-76
2020/12/16 09:02:06;;;;;;;10.57;2.28;;;9.10;99.90;;;;;;5113868;28;20031;-76
2020/12/16 09:04:38;;;;;;;15.63;2.60;;;9.00;99.90;;;;;;5101413;28;20356;-77
2020/12/16 09:07:23;;;;;;;8.07;1.98;;;8.80;99.90;;;;;;5091750;28;20028;-77
2020/12/16 09:09:49;;;;;;;5.80;1.67;;;8.70;99.90;;;;;;5093697;28;20024;-77
2020/12/16 09:12:18;;;;;;;17.40;3.35;;;8.60;99.90;;;;;;5093324;28;20027;-76
2020/12/16 09:14:59;;;;;;;11.32;1.90;;;8.50;99.90;;;;;;5093669;28;20040;-76
2020/12/16 09:17:29;;;;;;;12.02;2.20;;;8.80;99.90;;;;;;5093239;28;20023;-77
2020/12/16 09:19:57;;;;;;;9.35;1.90;;;9.00;99.90;;;;;;5105252;28;20043;-77
2020/12/16 09:22:29;;;;;;;30.27;3.92;;;9.20;99.90;;;;;;5113264;28;20027;-77
2020/12/16 09:24:57;;;;;;;10.38;2.53;;;9.20;99.90;;;;;;5111540;28;20031;-76
2020/12/16 09:27:24;;;;;;;7.95;3.17;;;9.20;99.90;;;;;;5113388;28;20456;-77
2020/12/16 09:29:52;;;;;;;7.25;2.95;;;9.10;99.90;;;;;;5101939;28;20053;-77
2020/12/16 09:32:26;;;;;;;9.30;3.65;;;9.00;99.90;;;;;;5093046;28;20023;-76
2020/12/16 09:34:54;;;;;;;6.40;3.28;;;8.90;99.90;;;;;;5094030;28;20050;-77
2020/12/16 09:37:35;;;;;;;7.75;3.58;;;8.80;99.90;;;;;;5089955;28;20039;-77
2020/12/16 09:40:18;;;;;;;9.83;4.60;;;8.70;99.90;;;;;;5103131;28;20384;-77
2020/12/16 09:42:57;;;;;;;9.50;3.90;;;8.70;99.90;;;;;;5113033;28;20087;-76
2020/12/16 09:45:24;;;;;;;5.68;3.70;;;8.60;99.90;;;;;;5111186;28;20040;-77
2020/12/16 09:47:53;;;;;;;12.45;4.00;;;8.50;99.90;;;;;;5112792;28;20024;-76
2020/12/16 09:50:28;;;;;;;8.73;3.22;;;8.30;99.90;;;;;;5100891;28;20500;-76
2020/12/16 09:53:06;;;;;;;6.25;4.13;;;8.30;99.90;;;;;;5092138;28;20028;-76
2020/12/16 09:55:40;;;;;;;10.30;3.70;;;8.20;99.90;;;;;;5093435;28;20035;-77
2020/12/16 09:58:09;;;;;;;7.82;4.30;;;8.10;99.90;;;;;;5092287;28;20051;-76
2020/12/16 10:00:38;;;;;;;5.03;4.07;;;8.10;99.90;;;;;;5103925;28;20046;-77
2020/12/16 10:03:10;;;;;;;8.25;4.03;;;8.00;99.90;;;;;;5106436;28;20032;-78
2020/12/16 10:05:39;;;;;;;7.97;4.45;;;8.00;99.90;;;;;;5092383;28;20052;-78
2020/12/16 10:08:15;;;;;;;7.30;4.95;;;7.90;99.90;;;;;;5096700;28;20047;-77
2020/12/16 10:10:44;;;;;;;8.85;5.50;;;7.80;99.90;;;;;;5111826;28;20046;-77
2020/12/16 10:13:12;;;;;;;14.80;6.32;;;7.70;99.90;;;;;;5106103;28;20040;-78
2020/12/16 10:15:38;;;;;;;8.30;5.20;;;7.70;99.90;;;;;;5093270;28;20491;-78
2020/12/16 10:18:05;;;;;;;8.95;5.70;;;7.70;99.90;;;;;;5091943;28;20030;-78
2020/12/16 10:20:32;;;;;;;8.80;5.13;;;7.70;99.90;;;;;;5092953;28;20039;-78
2020/12/16 10:23:01;;;;;;;10.77;5.03;;;7.70;99.90;;;;;;5092555;28;20020;-80
2020/12/16 10:25:28;;;;;;;8.93;4.93;;;7.70;99.90;;;;;;5092953;28;20043;-80
2020/12/16 10:27:55;;;;;;;9.00;4.80;;;7.70;99.90;;;;;;5091548;28;20032;-79
2020/12/16 10:30:24;;;;;;;5.95;4.53;;;7.70;99.90;;;;;;5090638;28;20032;-78
2020/12/16 10:32:54;;;;;;;6.32;4.75;;;7.70;99.90;;;;;;5091957;28;20368;-79
2020/12/16 10:35:23;;;;;;;10.15;5.35;;;7.70;99.90;;;;;;5092138;28;20036;-78
2020/12/16 10:37:50;;;;;;;8.85;5.10;;;7.70;99.90;;;;;;5089957;28;20047;-80
2020/12/16 10:40:17;;;;;;;8.45;5.10;;;7.70;99.90;;;;;;5091851;28;20479;-81
2020/12/16 10:42:44;;;;;;;6.30;5.07;;;7.70;99.90;;;;;;5111956;28;20456;-79
2020/12/16 10:45:11;;;;;;;9.95;4.85;;;7.70;99.90;;;;;;5112062;28;20051;-79
2020/12/16 10:47:38;;;;;;;10.93;5.13;;;7.70;99.90;;;;;;5092843;28;20036;-79
2020/12/16 10:50:05;;;;;;;7.60;5.32;;;7.60;99.90;;;;;;5091688;28;20035;-79
2020/12/16 10:52:32;;;;;;;8.93;4.90;;;7.60;99.90;;;;;;5108943;28;20023;-80
2020/12/16 10:54:59;;;;;;;9.50;5.70;;;7.60;99.90;;;;;;5112105;28;20028;-78
2020/12/16 10:57:26;;;;;;;10.65;4.93;;;7.60;99.90;;;;;;5110044;28;20039;-81
2020/12/16 10:59:53;;;;;;;7.75;5.38;;;7.50;99.90;;;;;;5112087;28;20487;-80
2020/12/16 11:02:20;;;;;;;8.98;5.00;;;7.50;99.90;;;;;;5096738;28;20048;-80
2020/12/16 11:04:48;;;;;;;8.13;5.38;;;7.60;99.90;;;;;;5091607;28;20040;-79
2020/12/16 11:07:16;;;;;;;7.13;5.35;;;7.60;99.90;;;;;;5092446;28;20035;-81
2020/12/16 11:09:43;;;;;;;8.23;4.75;;;7.50;99.90;;;;;;5092007;28;20380;-81
2020/12/16 11:12:09;;;;;;;6.35;4.60;;;7.50;99.90;;;;;;5094173;28;20361;-81
2020/12/16 11:14:36;;;;;;;8.52;5.20;;;7.50;99.90;;;;;;5096031;28;20035;-77
2020/12/16 11:17:05;;;;;;;7.75;4.85;;;7.40;99.90;;;;;;5105004;28;20028;-78
2020/12/16 11:19:32;;;;;;;8.70;4.90;;;7.40;99.90;;;;;;5115979;28;20030;-77
2020/12/16 11:21:59;;;;;;;6.38;5.18;;;7.40;99.90;;;;;;5105978;28;20036;-77
2020/12/16 11:24:27;;;;;;;7.00;4.80;;;7.40;99.90;;;;;;5096224;28;20051;-78
2020/12/16 11:26:57;;;;;;;9.18;4.65;;;7.40;99.90;;;;;;5113815;28;20019;-77
2020/12/16 11:29:31;;;;;;;9.57;5.57;;;7.40;99.90;;;;;;5114652;28;20028;-77
2020/12/16 11:32:01;;;;;;;8.70;5.15;;;7.40;99.90;;;;;;5109401;28;20039;-77
2020/12/16 11:34:29;;;;;;;8.90;6.72;;;7.30;99.90;;;;;;5114861;28;20023;-77
2020/12/16 11:37:00;;;;;;;10.82;6.15;;;7.30;99.90;;;;;;5095260;28;20627;-77
2020/12/16 11:39:27;;;;;;;9.67;6.67;;;7.40;99.90;;;;;;5094325;28;20043;-78
2020/12/16 11:41:55;;;;;;;12.27;6.50;;;7.30;99.90;;;;;;5110987;28;20264;-79
2020/12/16 11:44:24;;;;;;;10.00;7.10;;;7.20;99.90;;;;;;5115354;28;20035;-77
2020/12/16 11:46:52;;;;;;;9.95;7.28;;;7.20;99.90;;;;;;5095416;28;20024;-78
2020/12/16 11:49:20;;;;;;;8.45;6.72;;;7.20;99.90;;;;;;5094881;28;20043;-77
2020/12/16 11:51:48;;;;;;;11.10;7.03;;;7.30;99.90;;;;;;5112139;28;20019;-76
2020/12/16 11:54:15;;;;;;;8.00;6.07;;;7.20;99.90;;;;;;5115291;28;20023;-77
2020/12/16 11:56:42;;;;;;;9.80;7.07;;;7.20;99.90;;;;;;5114126;28;20019;-79
2020/12/16 11:59:09;;;;;;;8.93;7.00;;;7.30;99.90;;;;;;5115049;28;20593;-78
2020/12/16 12:01:38;;;;;;;9.85;7.10;;;7.20;99.90;;;;;;5114268;28;20027;-81
2020/12/16 12:04:05;;;;;;;9.73;6.72;;;7.20;99.90;;;;;;5114306;28;20043;-78
2020/12/16 12:06:32;;;;;;;6.85;6.15;;;7.20;99.90;;;;;;5114686;28;20035;-78
2020/12/16 12:08:59;;;;;;;10.05;6.80;;;7.20;99.90;;;;;;5114746;28;20031;-78
2020/12/16 12:11:26;;;;;;;8.05;6.85;;;7.20;99.90;;;;;;5112308;28;20036;-80
2020/12/16 12:13:53;;;;;;;9.13;6.80;;;7.20;99.90;;;;;;5114944;28;20019;-79
2020/12/16 12:16:23;;;;;;;9.70;6.93;;;7.20;99.90;;;;;;5106440;28;20040;-78
2020/12/16 12:18:50;;;;;;;13.02;7.18;;;7.20;99.90;;;;;;5101366;28;20470;-81
2020/12/16 12:21:18;;;;;;;10.05;6.78;;;7.10;99.90;;;;;;5112104;28;20054;-78
2020/12/16 12:23:46;;;;;;;8.27;6.38;;;7.10;99.90;;;;;;5093819;28;20021;-78
2020/12/16 12:26:13;;;;;;;8.38;5.97;;;7.10;99.90;;;;;;5094609;28;20464;-78
2020/12/16 12:28:40;;;;;;;8.32;6.03;;;7.00;99.90;;;;;;5114230;28;20032;-78
2020/12/16 12:31:07;;;;;;;9.73;6.38;;;7.00;99.90;;;;;;5114335;28;20024;-79
2020/12/16 12:33:34;;;;;;;8.50;6.10;;;6.90;99.90;;;;;;5113308;28;20028;-80
2020/12/16 12:36:01;;;;;;;8.27;5.93;;;6.90;99.90;;;;;;5114236;28;20039;-77
2020/12/16 12:38:28;;;;;;;8.15;6.10;;;6.90;99.90;;;;;;5095187;28;20039;-78
2020/12/16 12:40:55;;;;;;;11.10;6.22;;;6.80;99.90;;;;;;5112094;28;20032;-78
2020/12/16 12:43:22;;;;;;;10.50;5.93;;;6.80;99.90;;;;;;5112895;28;20024;-80
2020/12/16 12:45:48;;;;;;;8.25;6.30;;;6.80;99.90;;;;;;5115153;28;20043;-80
2020/12/16 12:48:15;;;;;;;6.75;5.80;;;6.80;99.90;;;;;;5096732;28;20024;-77
2020/12/16 12:50:42;;;;;;;7.65;6.05;;;6.70;99.90;;;;;;5106642;28;20035;-78
2020/12/16 12:53:09;;;;;;;7.55;6.13;;;6.70;99.90;;;;;;5107754;28;20028;-77
2020/12/16 12:55:38;;;;;;;9.60;7.10;;;6.70;99.90;;;;;;5097956;28;20039;-76
2020/12/16 12:58:06;;;;;;;8.35;6.25;;;6.70;99.90;;;;;;5108618;28;20048;-78
2020/12/16 13:00:34;;;;;;;9.50;7.00;;;6.70;99.90;;;;;;5113228;28;20036;-78
2020/12/16 13:03:01;;;;;;;9.88;6.75;;;6.70;99.90;;;;;;5114031;28;20463;-79
2020/12/16 13:05:27;;;;;;;9.15;6.63;;;6.80;99.90;;;;;;5114064;28;20062;-79
2020/12/16 13:07:54;;;;;;;7.30;6.43;;;6.80;99.90;;;;;;5113840;28;20047;-78